createdAt,value
2022-08-18T00:00:11.037Z,14.40
2022-08-18T00:05:26.033Z,14.50
2022-08-18T00:11:27.226Z,15.70
2022-08-18T00:17:17.746Z,14.20
2022-08-18T00:23:09.737Z,15.60
2022-08-18T00:29:09.348Z,14.80
2022-08-18T00:34:48.555Z,16.10
2022-08-18T00:41:21.781Z,15.30
2022-08-18T00:47:08.724Z,15.40
2022-08-18T00:53:09.475Z,15.90
2022-08-18T01:00:00.475Z,15.60
2022-08-18T01:06:36.835Z,15.20
2022-08-18T01:12:45.646Z,16.40
2022-08-18T01:18:43.543Z,15.20
2022-08-18T01:25:08.088Z,16.30
2022-08-18T01:31:30.285Z,15.20
2022-08-18T01:37:39.811Z,16.90
2022-08-18T01:44:34.932Z,15.10
2022-08-18T01:51:01.290Z,16.00
2022-08-18T01:57:03.264Z,18.00
2022-08-18T02:03:06.692Z,19.30
2022-08-18T02:09:25.995Z,16.40
2022-08-18T02:14:59.382Z,18.30
2022-08-18T02:20:57.087Z,17.20
2022-08-18T02:27:16.006Z,17.20
2022-08-18T02:33:52.640Z,16.80
2022-08-18T02:39:40.494Z,17.90
2022-08-18T02:46:02.472Z,18.30
2022-08-18T02:58:44.856Z,20.10
2022-08-18T03:05:37.739Z,21.00
2022-08-18T03:11:56.231Z,20.60
2022-08-18T03:18:43.981Z,21.40
2022-08-18T03:24:52.052Z,20.40
2022-08-18T03:30:55.362Z,20.30
2022-08-18T03:37:40.429Z,21.40
2022-08-18T03:44:06.892Z,19.30
2022-08-18T03:56:50.974Z,17.20
2022-08-18T04:03:25.643Z,14.20
2022-08-18T04:09:22.887Z,17.70
2022-08-18T04:15:28.427Z,18.70
2022-08-18T04:21:15.460Z,18.50
2022-08-18T04:27:12.903Z,19.80
2022-08-18T04:32:34.466Z,20.20
2022-08-18T04:38:33.911Z,20.90
2022-08-18T04:44:28.828Z,20.60
2022-08-18T04:49:50.916Z,19.30
2022-08-18T04:55:20.907Z,18.30
2022-08-18T05:00:45.025Z,16.70
2022-08-18T05:12:00.443Z,18.70
2022-08-18T05:17:10.905Z,21.30
2022-08-18T05:22:43.446Z,16.40
2022-08-18T05:27:48.689Z,19.10
2022-08-18T05:33:36.264Z,20.50
2022-08-18T05:39:11.791Z,18.80
2022-08-18T05:44:28.838Z,19.90
2022-08-18T05:50:14.786Z,18.70
2022-08-18T05:56:05.975Z,19.80
2022-08-18T06:02:08.580Z,20.60
2022-08-18T06:07:18.788Z,20.50
2022-08-18T06:12:40.212Z,20.40
2022-08-18T06:18:31.621Z,19.10
2022-08-18T06:24:28.870Z,19.60
2022-08-18T06:29:53.344Z,15.80
2022-08-18T06:35:25.464Z,19.10
2022-08-18T06:40:33.166Z,18.50
2022-08-18T06:45:47.760Z,18.50
2022-08-18T06:51:15.986Z,17.90
2022-08-18T06:56:57.369Z,18.50
2022-08-18T07:02:02.817Z,18.30
2022-08-18T07:07:57.308Z,16.50
2022-08-18T07:13:38.041Z,15.50
2022-08-18T07:18:40.428Z,16.70
2022-08-18T07:24:25.253Z,16.10
2022-08-18T07:29:34.788Z,16.00
2022-08-18T07:34:48.065Z,16.60
2022-08-18T07:40:03.906Z,14.40
2022-08-18T07:45:18.117Z,15.00
2022-08-18T07:50:57.405Z,13.70
2022-08-18T07:56:39.981Z,13.60
2022-08-18T08:02:13.239Z,11.90
2022-08-18T08:07:26.343Z,11.40
2022-08-18T08:13:09.681Z,12.10
2022-08-18T08:18:55.906Z,12.20
2022-08-18T08:24:34.555Z,11.70
2022-08-18T08:30:18.933Z,11.40
2022-08-18T08:36:02.354Z,12.40
2022-08-18T08:41:11.369Z,10.80
2022-08-18T08:46:24.085Z,11.20
2022-08-18T08:51:43.126Z,11.70
2022-08-18T08:56:55.535Z,11.50
2022-08-18T09:02:15.980Z,9.40
2022-08-18T09:08:03.344Z,10.00
2022-08-18T09:13:14.539Z,12.30
2022-08-18T09:18:47.681Z,11.30
2022-08-18T09:23:53.507Z,10.90
2022-08-18T09:29:13.591Z,11.10
2022-08-18T09:34:39.012Z,11.50
2022-08-18T09:40:26.065Z,11.50
2022-08-18T09:45:55.630Z,11.60
2022-08-18T09:51:24.659Z,10.70
2022-08-18T09:57:05.891Z,11.10
2022-08-18T10:02:36.784Z,11.90
2022-08-18T10:08:13.942Z,10.70
2022-08-18T10:14:26.362Z,10.40
2022-08-18T10:19:51.988Z,10.60
2022-08-18T10:25:14.078Z,10.80
2022-08-18T10:30:36.381Z,8.70
2022-08-18T10:36:03.064Z,11.10
2022-08-18T10:41:19.549Z,10.40
2022-08-18T10:46:34.985Z,10.80
2022-08-18T10:52:10.985Z,11.00
2022-08-18T10:58:07.013Z,10.50
2022-08-18T11:03:59.842Z,9.80
2022-08-18T11:09:27.255Z,9.50
2022-08-18T11:14:57.574Z,9.80
2022-08-18T11:20:06.138Z,10.00
2022-08-18T11:25:40.149Z,9.50
2022-08-18T11:30:48.354Z,10.00
2022-08-18T11:36:08.655Z,9.80
2022-08-18T11:46:39.068Z,9.40
2022-08-18T11:52:03.501Z,9.70
2022-08-18T11:57:59.292Z,10.00
2022-08-18T12:03:08.707Z,10.40
2022-08-18T12:14:29.763Z,10.10
2022-08-18T12:19:34.473Z,10.40
2022-08-18T12:24:39.432Z,8.60
2022-08-18T12:29:43.896Z,8.00
2022-08-18T12:34:47.088Z,9.50
2022-08-18T12:39:49.261Z,9.70
2022-08-18T12:44:53.275Z,9.40
2022-08-18T12:49:55.630Z,8.10
2022-08-18T12:54:57.626Z,8.70
2022-08-18T13:00:02.447Z,9.00
2022-08-18T13:05:06.992Z,9.40
2022-08-18T13:10:21.638Z,8.30
2022-08-18T13:15:38.265Z,10.20
2022-08-18T13:20:41.890Z,7.90
2022-08-18T13:25:47.238Z,7.90
2022-08-18T13:30:51.103Z,7.50
2022-08-18T13:35:54.887Z,8.70
2022-08-18T13:41:05.108Z,8.10
2022-08-18T13:46:12.222Z,7.20
2022-08-18T13:51:23.717Z,10.80
2022-08-18T13:56:31.274Z,7.70
2022-08-18T14:06:59.029Z,6.90
2022-08-18T14:12:05.582Z,7.60
2022-08-18T14:17:11.315Z,7.10
2022-08-18T14:22:32.273Z,7.50
2022-08-18T14:27:56.092Z,7.20
2022-08-18T14:33:50.902Z,7.60
2022-08-18T14:39:25.116Z,7.70
2022-08-18T14:44:32.238Z,7.50
2022-08-18T14:49:35.744Z,7.50
2022-08-18T14:54:51.044Z,8.00
2022-08-18T14:59:55.781Z,8.30
2022-08-18T15:04:59.491Z,8.20
2022-08-18T15:10:15.154Z,8.00
2022-08-18T15:15:22.939Z,8.50
2022-08-18T15:20:30.173Z,7.30
2022-08-18T15:25:45.585Z,8.10
2022-08-18T15:31:16.461Z,8.80
2022-08-18T15:36:24.119Z,7.20
2022-08-18T15:41:44.187Z,8.20
2022-08-18T15:46:53.271Z,7.90
2022-08-18T15:51:55.665Z,7.90
2022-08-18T15:57:01.534Z,8.80
2022-08-18T16:02:11.582Z,7.90
2022-08-18T16:07:17.861Z,8.80
2022-08-18T16:12:27.570Z,9.40
2022-08-18T16:17:32.330Z,8.60
2022-08-18T16:22:38.897Z,8.50
2022-08-18T16:27:57.159Z,8.70
2022-08-18T16:33:07.286Z,8.10
2022-08-18T16:38:09.919Z,8.00
2022-08-18T16:43:15.604Z,7.80
2022-08-18T16:53:27.601Z,8.20
2022-08-18T16:59:06.259Z,7.80
2022-08-18T17:04:35.163Z,8.40
2022-08-18T17:09:47.860Z,8.20
2022-08-18T17:14:52.105Z,8.00
2022-08-18T17:19:59.634Z,7.90
2022-08-18T17:25:08.497Z,7.60
2022-08-18T17:30:20.768Z,7.30
2022-08-18T17:35:29.650Z,7.70
2022-08-18T17:40:40.187Z,7.30
2022-08-18T17:45:46.863Z,7.40
2022-08-18T17:51:43.560Z,7.60
2022-08-18T17:57:31.491Z,7.90
2022-08-18T18:02:36.367Z,8.60
2022-08-18T18:07:58.004Z,7.50
2022-08-18T18:13:27.116Z,7.70
2022-08-18T18:19:12.187Z,8.50
2022-08-18T18:24:16.195Z,8.50
2022-08-18T18:29:31.567Z,9.20
2022-08-18T18:35:09.848Z,8.80
2022-08-18T18:40:54.673Z,8.30
2022-08-18T18:46:19.892Z,9.00
2022-08-18T18:52:04.249Z,9.50
2022-08-18T18:57:44.065Z,9.90
2022-08-18T19:03:03.619Z,10.10
2022-08-18T19:08:40.304Z,8.90
2022-08-18T19:14:00.651Z,9.10
2022-08-18T19:19:36.891Z,9.00
2022-08-18T19:25:00.293Z,9.40
2022-08-18T19:30:22.340Z,10.20
2022-08-18T19:35:45.803Z,8.80
2022-08-18T19:41:19.905Z,8.70
2022-08-18T19:46:39.838Z,9.60
2022-08-18T19:51:47.855Z,10.40
2022-08-18T19:57:24.333Z,9.80
2022-08-18T20:02:35.222Z,10.10
2022-08-18T20:08:09.170Z,10.80
2022-08-18T20:13:33.463Z,9.40
2022-08-18T20:18:38.592Z,9.70
2022-08-18T20:24:05.048Z,9.60
2022-08-18T20:29:15.953Z,10.30
2022-08-18T20:34:25.207Z,8.70
2022-08-18T20:39:55.587Z,9.60
2022-08-18T20:45:22.755Z,8.40
2022-08-18T20:51:05.188Z,7.80
2022-08-18T20:56:48.712Z,7.90
2022-08-18T21:01:59.713Z,7.40
2022-08-18T21:07:37.728Z,8.30
2022-08-18T21:12:57.996Z,7.90
2022-08-18T21:18:20.529Z,7.70
2022-08-18T21:23:33.720Z,8.10
2022-08-18T21:28:40.169Z,7.10
2022-08-18T21:33:55.168Z,7.50
2022-08-18T21:39:06.449Z,7.70
2022-08-18T21:44:54.922Z,7.40
2022-08-18T21:50:27.316Z,7.10
2022-08-18T21:55:45.408Z,7.00
2022-08-18T22:01:35.670Z,7.50
2022-08-18T22:07:01.277Z,6.90
2022-08-18T22:12:52.506Z,6.70
2022-08-18T22:18:22.918Z,6.90
2022-08-18T22:24:16.920Z,7.00
2022-08-18T22:29:28.004Z,7.40
2022-08-18T22:34:33.030Z,7.00
2022-08-18T22:39:40.476Z,6.80
2022-08-18T22:44:48.412Z,7.00
2022-08-18T22:50:00.921Z,7.60
2022-08-18T22:55:13.106Z,7.10
2022-08-18T23:00:19.594Z,7.90
2022-08-18T23:05:24.974Z,7.60
2022-08-18T23:10:27.851Z,7.60
2022-08-18T23:15:43.863Z,7.50
2022-08-18T23:20:55.212Z,8.10
2022-08-18T23:26:00.518Z,7.70
2022-08-18T23:31:03.278Z,8.30
2022-08-18T23:36:10.052Z,7.20
2022-08-18T23:41:18.464Z,7.60
2022-08-18T23:47:20.947Z,8.30
2022-08-18T23:52:48.733Z,7.70
2022-08-18T23:58:13.148Z,8.00
